sensor_id;sensor_type;location;lat;lon;timestamp;P1;durP1;ratioP1;P2;durP2;ratioP2
51612;SDS011;37694;51.748;14.326;2022-12-18T00:01:41;12.52;;;6.85;;
51612;SDS011;37694;51.748;14.326;2022-12-18T00:04:07;9.35;;;7.25;;
51612;SDS011;37694;51.748;14.326;2022-12-18T00:06:40;9.82;;;6.95;;
51612;SDS011;37694;51.748;14.326;2022-12-18T00:09:05;9.77;;;7.00;;
51612;SDS011;37694;51.748;14.326;2022-12-18T00:11:31;12.98;;;7.78;;
51612;SDS011;37694;51.748;14.326;2022-12-18T00:13:57;10.57;;;7.30;;
51612;SDS011;37694;51.748;14.326;2022-12-18T00:16:24;10.77;;;7.07;;
51612;SDS011;37694;51.748;14.326;2022-12-18T00:18:52;9.65;;;7.20;;
51612;SDS011;37694;51.748;14.326;2022-12-18T00:21:20;10.48;;;7.28;;
51612;SDS011;37694;51.748;14.326;2022-12-18T00:23:46;11.05;;;7.70;;
51612;SDS011;37694;51.748;14.326;2022-12-18T00:26:15;10.88;;;7.35;;
51612;SDS011;37694;51.748;14.326;2022-12-18T00:28:42;11.15;;;7.40;;
51612;SDS011;37694;51.748;14.326;2022-12-18T00:31:16;12.23;;;8.35;;
51612;SDS011;37694;51.748;14.326;2022-12-18T00:33:43;9.25;;;6.55;;
51612;SDS011;37694;51.748;14.326;2022-12-18T00:36:11;11.32;;;7.38;;
51612;SDS011;37694;51.748;14.326;2022-12-18T00:38:38;9.90;;;7.15;;
51612;SDS011;37694;51.748;14.326;2022-12-18T00:41:05;13.07;;;7.55;;
51612;SDS011;37694;51.748;14.326;2022-12-18T00:43:30;9.48;;;7.15;;
51612;SDS011;37694;51.748;14.326;2022-12-18T00:45:59;8.90;;;7.15;;
51612;SDS011;37694;51.748;14.326;2022-12-18T00:48:25;9.82;;;7.07;;
51612;SDS011;37694;51.748;14.326;2022-12-18T00:50:50;10.23;;;7.90;;
51612;SDS011;37694;51.748;14.326;2022-12-18T00:53:16;9.20;;;7.38;;
51612;SDS011;37694;51.748;14.326;2022-12-18T00:55:42;8.35;;;6.55;;
51612;SDS011;37694;51.748;14.326;2022-12-18T00:58:09;8.65;;;7.20;;
51612;SDS011;37694;51.748;14.326;2022-12-18T01:00:36;9.32;;;7.25;;
51612;SDS011;37694;51.748;14.326;2022-12-18T01:03:03;8.48;;;6.78;;
51612;SDS011;37694;51.748;14.326;2022-12-18T01:05:29;8.85;;;7.28;;
51612;SDS011;37694;51.748;14.326;2022-12-18T01:07:55;9.02;;;6.28;;
51612;SDS011;37694;51.748;14.326;2022-12-18T01:10:21;10.30;;;7.68;;
51612;SDS011;37694;51.748;14.326;2022-12-18T01:12:48;9.73;;;6.65;;
51612;SDS011;37694;51.748;14.326;2022-12-18T01:15:14;9.40;;;7.30;;
51612;SDS011;37694;51.748;14.326;2022-12-18T01:17:40;10.20;;;7.60;;
51612;SDS011;37694;51.748;14.326;2022-12-18T01:20:07;9.38;;;7.70;;
51612;SDS011;37694;51.748;14.326;2022-12-18T01:22:33;8.88;;;7.38;;
51612;SDS011;37694;51.748;14.326;2022-12-18T01:24:59;8.60;;;6.97;;
51612;SDS011;37694;51.748;14.326;2022-12-18T01:27:25;8.98;;;6.40;;
51612;SDS011;37694;51.748;14.326;2022-12-18T01:29:51;8.75;;;7.25;;
51612;SDS011;37694;51.748;14.326;2022-12-18T01:32:17;10.75;;;7.05;;
51612;SDS011;37694;51.748;14.326;2022-12-18T01:34:43;9.35;;;6.97;;
51612;SDS011;37694;51.748;14.326;2022-12-18T01:37:08;9.25;;;6.80;;
51612;SDS011;37694;51.748;14.326;2022-12-18T01:39:34;9.75;;;7.00;;
51612;SDS011;37694;51.748;14.326;2022-12-18T01:42:00;9.38;;;7.43;;
51612;SDS011;37694;51.748;14.326;2022-12-18T01:50:10;11.60;;;7.35;;
51612;SDS011;37694;51.748;14.326;2022-12-18T01:52:40;10.93;;;7.47;;
51612;SDS011;37694;51.748;14.326;2022-12-18T01:55:12;9.93;;;7.07;;
51612;SDS011;37694;51.748;14.326;2022-12-18T01:57:39;13.07;;;7.45;;
51612;SDS011;37694;51.748;14.326;2022-12-18T02:00:13;9.63;;;7.63;;
51612;SDS011;37694;51.748;14.326;2022-12-18T02:02:41;10.98;;;7.53;;
51612;SDS011;37694;51.748;14.326;2022-12-18T02:05:09;10.45;;;7.72;;
51612;SDS011;37694;51.748;14.326;2022-12-18T02:10:39;8.45;;;6.75;;
51612;SDS011;37694;51.748;14.326;2022-12-18T02:13:25;9.15;;;7.30;;
51612;SDS011;37694;51.748;14.326;2022-12-18T02:18:54;9.38;;;6.90;;
51612;SDS011;37694;51.748;14.326;2022-12-18T02:21:27;10.05;;;7.03;;
51612;SDS011;37694;51.748;14.326;2022-12-18T02:26:51;9.50;;;7.55;;
51612;SDS011;37694;51.748;14.326;2022-12-18T02:29:22;16.13;;;7.28;;
51612;SDS011;37694;51.748;14.326;2022-12-18T02:31:56;9.90;;;7.13;;
51612;SDS011;37694;51.748;14.326;2022-12-18T02:34:28;10.50;;;7.85;;
51612;SDS011;37694;51.748;14.326;2022-12-18T02:36:58;10.30;;;6.80;;
51612;SDS011;37694;51.748;14.326;2022-12-18T02:39:26;9.68;;;7.28;;
51612;SDS011;37694;51.748;14.326;2022-12-18T02:41:54;10.40;;;7.18;;
51612;SDS011;37694;51.748;14.326;2022-12-18T02:44:20;9.85;;;7.25;;
51612;SDS011;37694;51.748;14.326;2022-12-18T02:46:49;10.00;;;7.55;;
51612;SDS011;37694;51.748;14.326;2022-12-18T02:51:56;11.73;;;7.10;;
51612;SDS011;37694;51.748;14.326;2022-12-18T02:54:55;9.77;;;7.22;;
51612;SDS011;37694;51.748;14.326;2022-12-18T03:00:29;8.45;;;6.90;;
51612;SDS011;37694;51.748;14.326;2022-12-18T03:03:07;10.55;;;7.45;;
51612;SDS011;37694;51.748;14.326;2022-12-18T03:05:38;9.35;;;7.32;;
51612;SDS011;37694;51.748;14.326;2022-12-18T03:08:26;8.32;;;6.82;;
51612;SDS011;37694;51.748;14.326;2022-12-18T03:11:05;9.73;;;7.07;;
51612;SDS011;37694;51.748;14.326;2022-12-18T03:13:36;9.55;;;7.45;;
51612;SDS011;37694;51.748;14.326;2022-12-18T03:16:02;10.27;;;7.75;;
51612;SDS011;37694;51.748;14.326;2022-12-18T03:18:45;9.27;;;6.72;;
51612;SDS011;37694;51.748;14.326;2022-12-18T03:21:18;10.90;;;7.38;;
51612;SDS011;37694;51.748;14.326;2022-12-18T03:23:49;8.18;;;6.53;;
51612;SDS011;37694;51.748;14.326;2022-12-18T03:26:18;8.68;;;7.32;;
51612;SDS011;37694;51.748;14.326;2022-12-18T03:28:53;9.45;;;7.40;;
51612;SDS011;37694;51.748;14.326;2022-12-18T03:31:23;8.10;;;6.35;;
51612;SDS011;37694;51.748;14.326;2022-12-18T03:33:57;8.73;;;6.72;;
51612;SDS011;37694;51.748;14.326;2022-12-18T03:36:26;8.10;;;6.95;;
51612;SDS011;37694;51.748;14.326;2022-12-18T03:38:55;11.00;;;7.50;;
51612;SDS011;37694;51.748;14.326;2022-12-18T03:44:26;11.82;;;7.28;;
51612;SDS011;37694;51.748;14.326;2022-12-18T03:49:27;10.52;;;6.70;;
51612;SDS011;37694;51.748;14.326;2022-12-18T03:52:12;10.93;;;7.20;;
51612;SDS011;37694;51.748;14.326;2022-12-18T03:54:45;10.60;;;7.45;;
51612;SDS011;37694;51.748;14.326;2022-12-18T03:57:18;10.10;;;6.75;;
51612;SDS011;37694;51.748;14.326;2022-12-18T03:59:47;7.78;;;6.97;;
51612;SDS011;37694;51.748;14.326;2022-12-18T04:02:17;10.45;;;7.07;;
51612;SDS011;37694;51.748;14.326;2022-12-18T04:04:45;8.48;;;6.45;;
51612;SDS011;37694;51.748;14.326;2022-12-18T04:07:12;10.27;;;7.43;;
51612;SDS011;37694;51.748;14.326;2022-12-18T04:09:39;11.38;;;6.68;;
51612;SDS011;37694;51.748;14.326;2022-12-18T04:12:08;10.00;;;7.05;;
51612;SDS011;37694;51.748;14.326;2022-12-18T04:14:33;10.57;;;7.15;;
51612;SDS011;37694;51.748;14.326;2022-12-18T04:17:01;10.75;;;7.03;;
51612;SDS011;37694;51.748;14.326;2022-12-18T04:19:27;8.80;;;6.95;;
51612;SDS011;37694;51.748;14.326;2022-12-18T04:21:53;9.75;;;7.18;;
51612;SDS011;37694;51.748;14.326;2022-12-18T04:24:19;11.15;;;8.18;;
51612;SDS011;37694;51.748;14.326;2022-12-18T04:26:44;11.73;;;7.70;;
51612;SDS011;37694;51.748;14.326;2022-12-18T04:29:10;9.75;;;7.05;;
51612;SDS011;37694;51.748;14.326;2022-12-18T04:31:36;11.82;;;6.63;;
51612;SDS011;37694;51.748;14.326;2022-12-18T04:34:02;9.77;;;6.97;;
51612;SDS011;37694;51.748;14.326;2022-12-18T04:36:27;8.90;;;7.32;;
51612;SDS011;37694;51.748;14.326;2022-12-18T04:38:53;8.10;;;6.53;;
51612;SDS011;37694;51.748;14.326;2022-12-18T04:41:19;12.60;;;7.18;;
51612;SDS011;37694;51.748;14.326;2022-12-18T04:43:45;8.98;;;6.63;;
51612;SDS011;37694;51.748;14.326;2022-12-18T04:46:10;10.70;;;7.25;;
51612;SDS011;37694;51.748;14.326;2022-12-18T04:48:37;8.93;;;6.85;;
51612;SDS011;37694;51.748;14.326;2022-12-18T04:51:03;10.35;;;6.78;;
51612;SDS011;37694;51.748;14.326;2022-12-18T04:53:29;9.15;;;6.93;;
51612;SDS011;37694;51.748;14.326;2022-12-18T04:56:05;9.95;;;7.32;;
51612;SDS011;37694;51.748;14.326;2022-12-18T04:58:33;10.23;;;7.35;;
51612;SDS011;37694;51.748;14.326;2022-12-18T05:01:00;8.82;;;7.40;;
51612;SDS011;37694;51.748;14.326;2022-12-18T05:03:26;7.78;;;6.80;;
51612;SDS011;37694;51.748;14.326;2022-12-18T05:05:52;11.40;;;7.47;;
51612;SDS011;37694;51.748;14.326;2022-12-18T05:08:18;8.68;;;6.57;;
51612;SDS011;37694;51.748;14.326;2022-12-18T05:10:43;7.63;;;6.32;;
51612;SDS011;37694;51.748;14.326;2022-12-18T05:13:09;8.38;;;6.45;;
51612;SDS011;37694;51.748;14.326;2022-12-18T05:15:35;8.45;;;6.35;;
51612;SDS011;37694;51.748;14.326;2022-12-18T05:18:01;7.20;;;5.55;;
51612;SDS011;37694;51.748;14.326;2022-12-18T05:20:27;8.30;;;6.10;;
51612;SDS011;37694;51.748;14.326;2022-12-18T05:22:53;11.23;;;6.65;;
51612;SDS011;37694;51.748;14.326;2022-12-18T05:25:19;8.52;;;6.22;;
51612;SDS011;37694;51.748;14.326;2022-12-18T05:27:45;8.48;;;6.40;;
51612;SDS011;37694;51.748;14.326;2022-12-18T05:30:11;9.80;;;5.95;;
51612;SDS011;37694;51.748;14.326;2022-12-18T05:32:38;7.13;;;5.95;;
51612;SDS011;37694;51.748;14.326;2022-12-18T05:35:04;6.97;;;6.28;;
51612;SDS011;37694;51.748;14.326;2022-12-18T05:37:31;8.27;;;5.85;;
51612;SDS011;37694;51.748;14.326;2022-12-18T05:39:56;6.90;;;5.90;;
51612;SDS011;37694;51.748;14.326;2022-12-18T05:42:22;8.75;;;6.22;;
51612;SDS011;37694;51.748;14.326;2022-12-18T05:44:48;7.55;;;5.63;;
51612;SDS011;37694;51.748;14.326;2022-12-18T05:47:13;7.07;;;6.18;;
51612;SDS011;37694;51.748;14.326;2022-12-18T05:49:39;6.10;;;5.07;;
51612;SDS011;37694;51.748;14.326;2022-12-18T05:52:05;7.20;;;5.78;;
51612;SDS011;37694;51.748;14.326;2022-12-18T05:54:30;7.40;;;5.78;;
51612;SDS011;37694;51.748;14.326;2022-12-18T05:56:56;8.68;;;5.90;;
51612;SDS011;37694;51.748;14.326;2022-12-18T05:59:22;9.32;;;6.35;;
51612;SDS011;37694;51.748;14.326;2022-12-18T06:01:48;9.38;;;6.57;;
51612;SDS011;37694;51.748;14.326;2022-12-18T06:04:14;6.45;;;5.70;;
51612;SDS011;37694;51.748;14.326;2022-12-18T06:06:39;7.10;;;6.03;;
51612;SDS011;37694;51.748;14.326;2022-12-18T06:09:05;7.97;;;5.55;;
51612;SDS011;37694;51.748;14.326;2022-12-18T06:11:35;9.00;;;5.38;;
51612;SDS011;37694;51.748;14.326;2022-12-18T06:14:02;9.02;;;6.18;;
51612;SDS011;37694;51.748;14.326;2022-12-18T06:16:28;9.02;;;6.20;;
51612;SDS011;37694;51.748;14.326;2022-12-18T06:18:58;10.25;;;6.07;;
51612;SDS011;37694;51.748;14.326;2022-12-18T06:21:25;11.23;;;6.40;;
51612;SDS011;37694;51.748;14.326;2022-12-18T06:23:51;9.55;;;6.55;;
51612;SDS011;37694;51.748;14.326;2022-12-18T06:26:16;7.60;;;5.60;;
51612;SDS011;37694;51.748;14.326;2022-12-18T06:28:42;11.10;;;6.35;;
51612;SDS011;37694;51.748;14.326;2022-12-18T06:31:08;7.20;;;5.85;;
51612;SDS011;37694;51.748;14.326;2022-12-18T06:33:34;7.18;;;5.47;;
51612;SDS011;37694;51.748;14.326;2022-12-18T06:36:01;12.90;;;5.47;;
51612;SDS011;37694;51.748;14.326;2022-12-18T06:38:28;10.25;;;6.50;;
51612;SDS011;37694;51.748;14.326;2022-12-18T06:40:54;8.23;;;5.82;;
51612;SDS011;37694;51.748;14.326;2022-12-18T06:43:20;18.13;;;6.15;;
51612;SDS011;37694;51.748;14.326;2022-12-18T06:45:45;13.30;;;6.03;;
51612;SDS011;37694;51.748;14.326;2022-12-18T06:48:17;11.93;;;6.25;;
51612;SDS011;37694;51.748;14.326;2022-12-18T06:50:44;9.73;;;5.28;;
51612;SDS011;37694;51.748;14.326;2022-12-18T06:53:09;12.27;;;6.57;;
51612;SDS011;37694;51.748;14.326;2022-12-18T06:55:35;8.60;;;5.45;;
51612;SDS011;37694;51.748;14.326;2022-12-18T06:58:01;14.73;;;6.00;;
51612;SDS011;37694;51.748;14.326;2022-12-18T07:00:26;14.15;;;5.30;;
51612;SDS011;37694;51.748;14.326;2022-12-18T07:02:52;10.13;;;6.43;;
51612;SDS011;37694;51.748;14.326;2022-12-18T07:05:17;8.32;;;5.43;;
51612;SDS011;37694;51.748;14.326;2022-12-18T07:07:43;12.60;;;5.80;;
51612;SDS011;37694;51.748;14.326;2022-12-18T07:10:09;10.23;;;6.05;;
51612;SDS011;37694;51.748;14.326;2022-12-18T07:12:35;14.20;;;5.85;;
51612;SDS011;37694;51.748;14.326;2022-12-18T07:15:00;11.25;;;6.20;;
51612;SDS011;37694;51.748;14.326;2022-12-18T07:17:26;10.38;;;6.00;;
51612;SDS011;37694;51.748;14.326;2022-12-18T07:19:52;21.48;;;6.22;;
51612;SDS011;37694;51.748;14.326;2022-12-18T07:22:17;16.90;;;6.05;;
51612;SDS011;37694;51.748;14.326;2022-12-18T07:24:43;7.43;;;5.10;;
51612;SDS011;37694;51.748;14.326;2022-12-18T07:27:09;18.50;;;6.07;;
51612;SDS011;37694;51.748;14.326;2022-12-18T07:29:34;15.73;;;6.00;;
51612;SDS011;37694;51.748;14.326;2022-12-18T07:32:00;50.13;;;13.98;;
51612;SDS011;37694;51.748;14.326;2022-12-18T07:34:26;93.22;;;18.00;;
51612;SDS011;37694;51.748;14.326;2022-12-18T07:36:51;57.88;;;16.10;;
51612;SDS011;37694;51.748;14.326;2022-12-18T07:39:17;61.40;;;14.90;;
51612;SDS011;37694;51.748;14.326;2022-12-18T07:41:43;67.18;;;14.18;;
51612;SDS011;37694;51.748;14.326;2022-12-18T07:44:28;43.78;;;11.60;;
51612;SDS011;37694;51.748;14.326;2022-12-18T07:46:54;52.70;;;13.60;;
51612;SDS011;37694;51.748;14.326;2022-12-18T07:49:20;50.58;;;11.45;;
51612;SDS011;37694;51.748;14.326;2022-12-18T07:51:45;38.80;;;10.00;;
51612;SDS011;37694;51.748;14.326;2022-12-18T07:54:14;33.25;;;11.43;;
51612;SDS011;37694;51.748;14.326;2022-12-18T07:56:40;32.80;;;10.55;;
51612;SDS011;37694;51.748;14.326;2022-12-18T07:59:05;28.48;;;8.77;;
51612;SDS011;37694;51.748;14.326;2022-12-18T08:01:31;39.67;;;9.32;;
51612;SDS011;37694;51.748;14.326;2022-12-18T08:03:57;31.77;;;8.93;;
51612;SDS011;37694;51.748;14.326;2022-12-18T08:06:23;39.92;;;10.40;;
51612;SDS011;37694;51.748;14.326;2022-12-18T08:08:52;33.15;;;9.70;;
51612;SDS011;37694;51.748;14.326;2022-12-18T08:11:19;30.33;;;8.88;;
51612;SDS011;37694;51.748;14.326;2022-12-18T08:13:45;33.70;;;9.98;;
51612;SDS011;37694;51.748;14.326;2022-12-18T08:16:11;39.65;;;10.48;;
51612;SDS011;37694;51.748;14.326;2022-12-18T08:18:36;29.75;;;8.13;;
51612;SDS011;37694;51.748;14.326;2022-12-18T08:23:35;22.55;;;8.05;;
51612;SDS011;37694;51.748;14.326;2022-12-18T08:26:01;37.00;;;9.65;;
51612;SDS011;37694;51.748;14.326;2022-12-18T08:28:26;25.67;;;9.18;;
51612;SDS011;37694;51.748;14.326;2022-12-18T08:30:52;28.52;;;9.25;;
51612;SDS011;37694;51.748;14.326;2022-12-18T08:33:18;33.83;;;9.38;;
51612;SDS011;37694;51.748;14.326;2022-12-18T08:35:43;29.90;;;8.48;;
51612;SDS011;37694;51.748;14.326;2022-12-18T08:38:09;25.75;;;7.97;;
51612;SDS011;37694;51.748;14.326;2022-12-18T08:40:35;27.42;;;8.68;;
51612;SDS011;37694;51.748;14.326;2022-12-18T08:43:00;34.40;;;8.40;;
51612;SDS011;37694;51.748;14.326;2022-12-18T08:45:45;29.45;;;9.18;;
51612;SDS011;37694;51.748;14.326;2022-12-18T08:48:10;38.97;;;8.65;;
51612;SDS011;37694;51.748;14.326;2022-12-18T08:50:36;36.25;;;9.98;;
51612;SDS011;37694;51.748;14.326;2022-12-18T08:53:02;35.30;;;9.55;;
51612;SDS011;37694;51.748;14.326;2022-12-18T08:55:27;71.32;;;27.30;;
51612;SDS011;37694;51.748;14.326;2022-12-18T08:57:53;76.65;;;27.52;;
51612;SDS011;37694;51.748;14.326;2022-12-18T09:00:19;91.90;;;30.27;;
51612;SDS011;37694;51.748;14.326;2022-12-18T09:02:45;66.50;;;31.52;;
51612;SDS011;37694;51.748;14.326;2022-12-18T09:05:10;76.82;;;32.88;;
51612;SDS011;37694;51.748;14.326;2022-12-18T09:07:36;74.45;;;33.78;;
51612;SDS011;37694;51.748;14.326;2022-12-18T09:10:02;80.18;;;34.78;;
51612;SDS011;37694;51.748;14.326;2022-12-18T09:12:28;85.25;;;32.90;;
51612;SDS011;37694;51.748;14.326;2022-12-18T09:14:54;72.43;;;31.42;;
51612;SDS011;37694;51.748;14.326;2022-12-18T09:17:21;80.63;;;30.75;;
51612;SDS011;37694;51.748;14.326;2022-12-18T09:19:47;65.80;;;30.77;;
51612;SDS011;37694;51.748;14.326;2022-12-18T09:22:12;76.18;;;30.45;;
51612;SDS011;37694;51.748;14.326;2022-12-18T09:24:38;64.75;;;28.92;;
51612;SDS011;37694;51.748;14.326;2022-12-18T09:27:04;61.13;;;28.25;;
51612;SDS011;37694;51.748;14.326;2022-12-18T09:29:29;59.20;;;27.10;;
51612;SDS011;37694;51.748;14.326;2022-12-18T09:31:55;90.20;;;29.50;;
51612;SDS011;37694;51.748;14.326;2022-12-18T09:34:21;104.10;;;29.35;;
51612;SDS011;37694;51.748;14.326;2022-12-18T09:36:47;53.08;;;26.83;;
51612;SDS011;37694;51.748;14.326;2022-12-18T09:39:13;63.33;;;27.48;;
51612;SDS011;37694;51.748;14.326;2022-12-18T09:41:52;61.35;;;23.85;;
51612;SDS011;37694;51.748;14.326;2022-12-18T09:44:33;58.08;;;21.52;;
51612;SDS011;37694;51.748;14.326;2022-12-18T09:57:45;43.22;;;19.67;;
51612;SDS011;37694;51.748;14.326;2022-12-18T10:00:16;47.28;;;20.17;;
51612;SDS011;37694;51.748;14.326;2022-12-18T10:02:45;46.42;;;19.00;;
51612;SDS011;37694;51.748;14.326;2022-12-18T10:05:13;56.25;;;20.17;;
51612;SDS011;37694;51.748;14.326;2022-12-18T10:08:02;40.78;;;19.35;;
51612;SDS011;37694;51.748;14.326;2022-12-18T10:10:43;50.88;;;19.77;;
51612;SDS011;37694;51.748;14.326;2022-12-18T10:27:39;51.03;;;17.17;;
51612;SDS011;37694;51.748;14.326;2022-12-18T10:30:12;43.40;;;17.48;;
51612;SDS011;37694;51.748;14.326;2022-12-18T10:32:40;37.55;;;16.88;;
51612;SDS011;37694;51.748;14.326;2022-12-18T10:35:14;53.63;;;18.63;;
51612;SDS011;37694;51.748;14.326;2022-12-18T10:38:04;44.42;;;17.98;;
51612;SDS011;37694;51.748;14.326;2022-12-18T10:40:50;43.47;;;16.15;;
51612;SDS011;37694;51.748;14.326;2022-12-18T10:43:28;23.75;;;13.88;;
51612;SDS011;37694;51.748;14.326;2022-12-18T10:48:24;35.85;;;16.38;;
51612;SDS011;37694;51.748;14.326;2022-12-18T10:50:50;36.92;;;15.57;;
51612;SDS011;37694;51.748;14.326;2022-12-18T10:53:24;37.08;;;15.45;;
51612;SDS011;37694;51.748;14.326;2022-12-18T10:55:52;38.22;;;15.13;;
51612;SDS011;37694;51.748;14.326;2022-12-18T10:58:37;24.25;;;14.55;;
51612;SDS011;37694;51.748;14.326;2022-12-18T11:03:38;40.10;;;16.00;;
51612;SDS011;37694;51.748;14.326;2022-12-18T11:08:38;31.58;;;14.85;;
51612;SDS011;37694;51.748;14.326;2022-12-18T11:11:07;33.25;;;14.20;;
51612;SDS011;37694;51.748;14.326;2022-12-18T11:14:05;36.38;;;14.20;;
51612;SDS011;37694;51.748;14.326;2022-12-18T11:16:42;31.67;;;15.70;;
51612;SDS011;37694;51.748;14.326;2022-12-18T11:19:55;36.22;;;16.13;;
51612;SDS011;37694;51.748;14.326;2022-12-18T11:22:01;38.40;;;16.02;;
51612;SDS011;37694;51.748;14.326;2022-12-18T11:24:42;32.70;;;15.75;;
51612;SDS011;37694;51.748;14.326;2022-12-18T11:27:13;32.13;;;15.73;;
51612;SDS011;37694;51.748;14.326;2022-12-18T11:29:42;33.85;;;15.15;;
51612;SDS011;37694;51.748;14.326;2022-12-18T11:32:12;31.00;;;14.55;;
51612;SDS011;37694;51.748;14.326;2022-12-18T11:37:46;23.45;;;13.55;;
51612;SDS011;37694;51.748;14.326;2022-12-18T11:40:27;30.40;;;14.45;;
51612;SDS011;37694;51.748;14.326;2022-12-18T11:45:51;32.88;;;15.05;;
51612;SDS011;37694;51.748;14.326;2022-12-18T11:50:55;30.70;;;13.65;;
51612;SDS011;37694;51.748;14.326;2022-12-18T11:53:22;27.75;;;14.90;;
51612;SDS011;37694;51.748;14.326;2022-12-18T12:04:25;26.90;;;13.77;;
51612;SDS011;37694;51.748;14.326;2022-12-18T12:20:10;21.23;;;12.35;;
51612;SDS011;37694;51.748;14.326;2022-12-18T12:22:56;26.00;;;13.27;;
51612;SDS011;37694;51.748;14.326;2022-12-18T12:25:41;24.35;;;13.65;;
51612;SDS011;37694;51.748;14.326;2022-12-18T12:39:00;22.98;;;12.95;;
51612;SDS011;37694;51.748;14.326;2022-12-18T12:41:31;20.60;;;11.65;;
51612;SDS011;37694;51.748;14.326;2022-12-18T12:44:20;23.67;;;13.23;;
51612;SDS011;37694;51.748;14.326;2022-12-18T12:46:50;22.80;;;12.63;;
51612;SDS011;37694;51.748;14.326;2022-12-18T12:49:20;23.83;;;12.48;;
51612;SDS011;37694;51.748;14.326;2022-12-18T12:51:59;18.08;;;11.68;;
51612;SDS011;37694;51.748;14.326;2022-12-18T12:54:52;19.00;;;12.82;;
51612;SDS011;37694;51.748;14.326;2022-12-18T12:57:23;20.90;;;12.20;;
51612;SDS011;37694;51.748;14.326;2022-12-18T13:00:06;19.40;;;13.32;;
51612;SDS011;37694;51.748;14.326;2022-12-18T13:20:41;19.02;;;12.70;;
51612;SDS011;37694;51.748;14.326;2022-12-18T13:30:59;18.88;;;12.07;;
51612;SDS011;37694;51.748;14.326;2022-12-18T13:36:03;18.70;;;12.07;;
51612;SDS011;37694;51.748;14.326;2022-12-18T13:39:08;19.98;;;12.68;;
51612;SDS011;37694;51.748;14.326;2022-12-18T13:41:43;18.85;;;11.80;;
51612;SDS011;37694;51.748;14.326;2022-12-18T13:51:39;21.55;;;12.35;;
51612;SDS011;37694;51.748;14.326;2022-12-18T13:57:04;19.75;;;12.15;;
51612;SDS011;37694;51.748;14.326;2022-12-18T13:59:48;18.80;;;11.50;;
51612;SDS011;37694;51.748;14.326;2022-12-18T14:02:32;14.52;;;11.00;;
51612;SDS011;37694;51.748;14.326;2022-12-18T14:04:59;18.08;;;12.05;;
51612;SDS011;37694;51.748;14.326;2022-12-18T14:07:25;15.93;;;11.88;;
51612;SDS011;37694;51.748;14.326;2022-12-18T14:09:54;15.82;;;11.02;;
51612;SDS011;37694;51.748;14.326;2022-12-18T14:15:09;18.05;;;11.75;;
51612;SDS011;37694;51.748;14.326;2022-12-18T14:17:47;17.50;;;11.70;;
51612;SDS011;37694;51.748;14.326;2022-12-18T14:20:14;14.45;;;10.85;;
51612;SDS011;37694;51.748;14.326;2022-12-18T14:22:45;18.92;;;12.38;;
51612;SDS011;37694;51.748;14.326;2022-12-18T14:27:42;16.02;;;10.93;;
51612;SDS011;37694;51.748;14.326;2022-12-18T14:30:29;19.27;;;11.50;;
51612;SDS011;37694;51.748;14.326;2022-12-18T14:35:31;15.85;;;11.10;;
51612;SDS011;37694;51.748;14.326;2022-12-18T14:40:59;16.45;;;11.48;;
51612;SDS011;37694;51.748;14.326;2022-12-18T14:43:49;15.68;;;10.65;;
51612;SDS011;37694;51.748;14.326;2022-12-18T14:48:54;15.13;;;10.90;;
51612;SDS011;37694;51.748;14.326;2022-12-18T14:51:22;17.63;;;11.18;;
51612;SDS011;37694;51.748;14.326;2022-12-18T14:53:53;15.23;;;10.85;;
51612;SDS011;37694;51.748;14.326;2022-12-18T14:56:28;16.77;;;10.65;;
51612;SDS011;37694;51.748;14.326;2022-12-18T14:59:00;16.48;;;10.55;;
51612;SDS011;37694;51.748;14.326;2022-12-18T15:02:09;16.30;;;10.80;;
51612;SDS011;37694;51.748;14.326;2022-12-18T15:04:41;14.27;;;10.60;;
51612;SDS011;37694;51.748;14.326;2022-12-18T15:12:37;12.82;;;10.30;;
51612;SDS011;37694;51.748;14.326;2022-12-18T15:17:59;13.30;;;10.23;;
51612;SDS011;37694;51.748;14.326;2022-12-18T15:20:30;16.52;;;10.90;;
51612;SDS011;37694;51.748;14.326;2022-12-18T15:22:57;12.90;;;9.70;;
51612;SDS011;37694;51.748;14.326;2022-12-18T15:25:32;13.93;;;9.43;;
51612;SDS011;37694;51.748;14.326;2022-12-18T15:28:01;11.93;;;10.10;;
51612;SDS011;37694;51.748;14.326;2022-12-18T15:30:27;13.30;;;9.90;;
51612;SDS011;37694;51.748;14.326;2022-12-18T15:33:16;11.88;;;9.38;;
51612;SDS011;37694;51.748;14.326;2022-12-18T15:35:47;15.48;;;10.45;;
51612;SDS011;37694;51.748;14.326;2022-12-18T15:38:25;16.23;;;10.18;;
51612;SDS011;37694;51.748;14.326;2022-12-18T15:40:51;13.50;;;10.15;;
51612;SDS011;37694;51.748;14.326;2022-12-18T15:43:18;12.85;;;9.85;;
51612;SDS011;37694;51.748;14.326;2022-12-18T15:45:59;14.98;;;10.48;;
51612;SDS011;37694;51.748;14.326;2022-12-18T15:48:31;16.05;;;10.73;;
51612;SDS011;37694;51.748;14.326;2022-12-18T15:50:59;13.73;;;10.60;;
51612;SDS011;37694;51.748;14.326;2022-12-18T15:53:25;12.73;;;10.02;;
51612;SDS011;37694;51.748;14.326;2022-12-18T15:55:55;11.88;;;9.82;;
51612;SDS011;37694;51.748;14.326;2022-12-18T15:58:39;14.20;;;9.85;;
51612;SDS011;37694;51.748;14.326;2022-12-18T16:01:05;13.82;;;10.57;;
51612;SDS011;37694;51.748;14.326;2022-12-18T16:03:32;13.35;;;9.98;;
51612;SDS011;37694;51.748;14.326;2022-12-18T16:05:58;13.60;;;10.00;;
51612;SDS011;37694;51.748;14.326;2022-12-18T16:08:27;18.20;;;10.20;;
51612;SDS011;37694;51.748;14.326;2022-12-18T16:10:54;12.80;;;9.55;;
51612;SDS011;37694;51.748;14.326;2022-12-18T16:13:20;14.90;;;11.07;;
51612;SDS011;37694;51.748;14.326;2022-12-18T16:15:46;14.85;;;9.48;;
51612;SDS011;37694;51.748;14.326;2022-12-18T16:18:12;14.05;;;9.82;;
51612;SDS011;37694;51.748;14.326;2022-12-18T16:20:38;14.07;;;10.32;;
51612;SDS011;37694;51.748;14.326;2022-12-18T16:23:04;13.93;;;9.52;;
51612;SDS011;37694;51.748;14.326;2022-12-18T16:25:30;11.52;;;9.10;;
51612;SDS011;37694;51.748;14.326;2022-12-18T16:27:55;11.68;;;9.32;;
51612;SDS011;37694;51.748;14.326;2022-12-18T16:30:25;14.43;;;10.60;;
51612;SDS011;37694;51.748;14.326;2022-12-18T16:32:54;11.52;;;8.93;;
51612;SDS011;37694;51.748;14.326;2022-12-18T16:35:20;11.23;;;8.88;;
51612;SDS011;37694;51.748;14.326;2022-12-18T16:37:46;12.90;;;9.98;;
51612;SDS011;37694;51.748;14.326;2022-12-18T16:40:13;14.05;;;10.43;;
51612;SDS011;37694;51.748;14.326;2022-12-18T16:42:40;12.77;;;9.35;;
51612;SDS011;37694;51.748;14.326;2022-12-18T16:45:07;12.18;;;9.45;;
51612;SDS011;37694;51.748;14.326;2022-12-18T16:47:35;11.80;;;8.82;;
51612;SDS011;37694;51.748;14.326;2022-12-18T16:50:02;13.40;;;9.15;;
51612;SDS011;37694;51.748;14.326;2022-12-18T16:52:28;12.63;;;10.15;;
51612;SDS011;37694;51.748;14.326;2022-12-18T16:54:54;15.13;;;11.02;;
51612;SDS011;37694;51.748;14.326;2022-12-18T16:57:20;12.85;;;8.98;;
51612;SDS011;37694;51.748;14.326;2022-12-18T16:59:46;12.73;;;9.73;;
51612;SDS011;37694;51.748;14.326;2022-12-18T17:02:13;12.80;;;9.13;;
51612;SDS011;37694;51.748;14.326;2022-12-18T17:04:42;12.43;;;10.18;;
51612;SDS011;37694;51.748;14.326;2022-12-18T17:07:09;11.57;;;9.63;;
51612;SDS011;37694;51.748;14.326;2022-12-18T17:09:35;11.73;;;9.52;;
51612;SDS011;37694;51.748;14.326;2022-12-18T17:12:01;14.38;;;9.95;;
51612;SDS011;37694;51.748;14.326;2022-12-18T17:14:27;12.43;;;9.15;;
51612;SDS011;37694;51.748;14.326;2022-12-18T17:16:53;14.13;;;9.15;;